Latest Weather Observations for Dwellingup

IDW60801

Issued at 12:35 pm WST Wednesday 20 August 2014 (issued every 30 minutes, with the page automatically refreshed every 10 minutes)

About weather observations | Map of weather stations | Latest weather observations for WA | Other Formats
Station Details ID: 009538 Name: DWELLINGUP Lat: -32.71 Lon: 116.06 Height: 267.0 m
Data from the previous 72 hours. | See also: Recent months at Dwellingup
Date/Time
WST
Temp
°C
App
Temp
°C
Dew
Point
Rel
Hum
%
Delta-T
°C
Wind Press
QNH
hPa
Press
MSL
hPa
Rain
since 9 am
mm
Dir
 
Spd
km/h
Gust
km/h
Spd
kts
Gust
kts
20/12:30pm 13.6 10.6 11.8 89 1.0 NNW 19 30 10 16 1014.9 1015.1 1.8
20/12:00pm 14.3 12.2 11.3 82 1.6 NW 13 19 7 10 1015.1 1015.3 0.2
20/11:30am 15.9 13.1 10.0 68 3.1 NNW 15 24 8 13 1015.0 1015.2 0.2
20/11:00am 16.5 13.0 10.1 66 3.4 N 19 30 10 16 1015.2 1015.4 0.0
20/10:30am 16.2 12.6 10.5 69 3.1 NNW 20 35 11 19 1015.5 1015.7 0.0
20/10:00am 16.0 13.1 11.0 72 2.7 N 17 30 9 16 1015.7 1015.8 0.0
20/09:30am 15.2 13.4 10.8 75 2.4 NNW 11 17 6 9 1015.9 1016.0 0.0
20/09:00am 14.7 14.1 12.2 85 1.4 NNW 7 13 4 7 1016.0 1016.1 1.0
20/08:30am 13.2 12.6 12.3 94 0.5 N 7 9 4 5 1016.1 - 1.0
20/08:00am 11.9 11.9 11.0 94 0.5 NNE 2 9 1 5 1016.0 1016.1 1.0
20/07:30am 11.6 10.7 10.7 94 0.5 NNE 6 11 3 6 1015.5 - 1.0
20/07:00am 11.6 9.8 10.7 94 0.5 N 11 15 6 8 1015.4 1015.6 1.0
20/06:30am 11.3 9.0 10.4 94 0.5 N 13 17 7 9 1015.2 - 1.0
20/06:00am 10.9 8.5 10.0 94 0.5 N 13 17 7 9 1015.1 1015.3 1.0
20/05:30am 11.2 9.6 10.3 94 0.5 N 9 11 5 6 1015.2 - 1.0
20/05:00am 11.3 9.8 10.4 94 0.5 N 9 11 5 6 1015.3 1015.5 1.0
20/04:30am 11.3 10.7 10.4 94 0.5 N 4 7 2 4 1015.2 - 1.0
20/04:00am 11.3 10.3 10.4 94 0.5 N 6 9 3 5 1015.4 1015.6 0.8
20/03:30am 10.9 9.2 10.0 94 0.5 N 9 11 5 6 1015.7 - 0.8
20/03:00am 10.9 9.6 10.0 94 0.5 N 7 7 4 4 1016.0 1016.1 0.8
20/02:30am 10.6 9.2 9.7 94 0.5 N 7 9 4 5 1016.3 - 0.8
20/02:00am 11.0 9.4 10.1 94 0.5 NW 9 13 5 7 1016.5 1016.6 0.8
20/01:30am 10.0 7.7 9.1 94 0.5 NNW 11 17 6 9 1016.7 - 0.2
20/01:00am 9.5 7.4 8.4 93 0.5 N 9 11 5 6 1016.7 1016.8 0.2
20/12:30am 9.8 7.8 8.7 93 0.5 NNW 9 11 5 6 1016.8 - 0.2
20/12:00am 9.4 7.3 8.3 93 0.5 NNW 9 9 5 5 1016.8 1016.9 0.2
 
Date/Time
WST
Temp
°C
App
Temp
°C
Dew
Point
Rel
Hum
%
Delta-T
°C
Wind Press
QNH
hPa
Press
MSL
hPa
Rain
since 9 am
mm
Dir
 
Spd
km/h
Gust
km/h
Spd
kts
Gust
kts
19/11:30pm 9.2 7.1 8.1 93 0.5 NW 9 9 5 5 1016.8 - 0.2
19/11:00pm 9.4 7.3 8.3 93 0.5 W 9 13 5 7 1016.9 1017.1 0.2
19/10:30pm 10.0 7.7 8.9 93 0.5 W 11 15 6 8 1017.1 - 0.2
19/10:00pm 10.1 7.8 8.9 92 0.6 W 11 15 6 8 1017.3 1017.5 0.2
19/09:30pm 10.2 7.9 9.0 92 0.6 W 11 15 6 8 1017.4 - 0.2
19/09:00pm 10.6 8.4 9.2 91 0.7 W 11 13 6 7 1017.3 1017.5 0.2
19/08:30pm 11.1 8.6 9.7 91 0.7 W 13 17 7 9 1017.3 - 0.2
19/08:00pm 11.8 9.8 10.2 90 0.8 W 11 15 6 8 1017.1 1017.3 0.2
19/07:30pm 12.5 9.9 10.7 89 0.9 W 15 22 8 12 1016.8 - 0.2
19/07:00pm 12.8 11.0 10.9 88 1.0 W 11 15 6 8 1016.6 1016.7 0.2
19/06:30pm 13.4 11.7 11.1 86 1.2 W 11 15 6 8 1016.6 - 0.2
19/06:00pm 14.2 12.8 11.0 81 1.7 W 9 13 5 7 1016.5 1016.6 0.2
19/05:30pm 15.2 13.1 11.2 77 2.2 W 13 22 7 12 1016.4 - 0.2
19/05:00pm 16.0 13.9 11.0 72 2.7 W 13 22 7 12 1016.2 1016.3 0.2
19/04:30pm 16.8 15.1 11.3 70 3.0 W 11 19 6 10 1016.1 - 0.2
19/04:00pm 17.2 15.0 10.8 66 3.5 WSW 13 26 7 14 1015.7 1015.8 0.2
19/03:30pm 16.9 14.7 10.7 67 3.4 WSW 13 17 7 9 1015.7 - 0.2
19/03:00pm 16.2 14.0 10.9 71 2.9 WSW 13 19 7 10 1015.7 1015.8 0.2
19/02:30pm 17.5 16.0 12.0 70 3.1 W 11 19 6 10 1015.3 - 0.2
19/02:00pm 16.7 14.5 10.8 68 3.2 W 13 22 7 12 1015.5 1015.7 0.2
19/01:30pm 16.5 14.7 10.8 69 3.1 SSW 11 15 6 8 1015.3 - 0.2
19/01:00pm 17.0 15.3 11.1 68 3.2 W 11 17 6 9 1015.5 1015.7 0.2
19/12:30pm 16.9 14.8 11.2 69 3.1 W 13 19 7 10 1016.0 - 0.2
19/12:00pm 15.9 14.8 10.7 71 2.8 W 7 17 4 9 1016.4 1016.5 0.2
19/11:30am 15.5 13.8 11.3 76 2.3 SW 11 15 6 8 1016.6 - 0.0
19/11:00am 15.5 13.1 11.5 77 2.2 SW 15 24 8 13 1016.8 1016.9 0.0
19/10:30am 15.0 13.1 11.8 81 1.8 SW 13 19 7 10 1016.9 - 0.0
19/10:00am 14.6 13.6 12.3 86 1.3 SW 9 15 5 8 1016.9 1017.1 0.0
19/09:30am 13.4 12.7 12.1 92 0.7 SW 7 13 4 7 1017.0 - 0.0
19/09:00am 12.9 12.8 12.0 94 0.5 W 4 9 2 5 1016.9 1017.1 22.8
19/08:30am 12.3 11.4 11.5 95 0.4 WNW 7 11 4 6 1016.8 - 22.8
19/08:00am 9.6 7.2 8.8 95 0.4 W 11 17 6 9 1016.5 1016.6 22.8
19/07:30am 8.5 5.9 7.6 94 0.4 WSW 11 15 6 8 1016.3 - 22.8
19/07:00am 8.0 5.2 7.1 94 0.4 WSW 11 15 6 8 1016.1 1016.2 22.8
19/06:30am 8.5 5.9 7.6 94 0.4 SW 11 15 6 8 1015.7 - 22.8
19/06:00am 8.6 6.0 7.7 94 0.4 WSW 11 13 6 7 1015.4 1015.6 22.8
19/05:30am 9.2 7.1 8.3 94 0.4 WSW 9 13 5 7 1015.1 - 22.8
19/05:00am 9.6 7.6 8.7 94 0.4 W 9 11 5 6 1015.1 1015.3 22.8
19/04:30am 9.8 7.9 8.9 94 0.4 W 9 11 5 6 1015.0 - 22.8
19/04:00am 10.2 8.4 9.3 94 0.5 W 9 13 5 7 1015.0 1015.2 22.8
19/03:30am 11.1 9.5 10.2 94 0.5 W 9 11 5 6 1014.9 - 22.8
19/03:00am 11.6 10.1 10.7 94 0.5 WNW 9 13 5 7 1014.9 1015.1 22.8
19/02:30am 11.7 10.3 10.8 94 0.5 WNW 9 13 5 7 1015.1 - 22.6
19/02:00am 11.6 10.1 10.7 94 0.5 WNW 9 13 5 7 1015.1 1015.3 22.6
19/01:30am 11.6 9.7 10.5 93 0.6 W 11 17 6 9 1015.2 - 22.6
19/01:00am 11.4 9.8 10.3 93 0.6 WNW 9 11 5 6 1015.2 1015.4 22.0
19/12:30am 11.5 9.6 10.4 93 0.6 W 11 15 6 8 1015.1 - 22.0
19/12:00am 11.0 9.3 9.9 93 0.6 WNW 9 13 5 7 1015.2 1015.4 21.8
 
Date/Time
WST
Temp
°C
App
Temp
°C
Dew
Point
Rel
Hum
%
Delta-T
°C
Wind Press
QNH
hPa
Press
MSL
hPa
Rain
since 9 am
mm
Dir
 
Spd
km/h
Gust
km/h
Spd
kts
Gust
kts
18/11:30pm 10.9 9.2 9.8 93 0.6 WNW 9 13 5 7 1015.2 - 21.8
18/11:00pm 11.4 9.8 10.1 92 0.7 NW 9 13 5 7 1015.3 1015.5 21.8
18/10:30pm 11.4 9.8 10.1 92 0.7 NW 9 13 5 7 1015.7 - 21.8
18/10:00pm 11.4 9.4 10.1 92 0.7 W 11 17 6 9 1015.7 1015.8 21.4
18/09:30pm 11.3 9.2 9.7 90 0.8 WNW 11 15 6 8 1015.5 - 21.2
18/09:00pm 11.9 10.3 10.1 89 0.9 WSW 9 13 5 7 1015.5 1015.7 21.2
18/08:30pm 12.0 10.4 10.1 88 1.0 W 9 13 5 7 1015.2 - 20.8
18/08:00pm 12.4 10.1 10.3 87 1.1 WSW 13 22 7 12 1014.9 1015.1 20.8
18/07:30pm 12.5 10.2 10.6 88 1.0 WSW 13 26 7 14 1014.5 - 20.8
18/07:00pm 12.8 10.7 11.0 89 1.0 W 13 20 7 11 1014.0 1014.2 20.8
18/06:30pm 12.9 10.8 11.3 90 0.9 WNW 13 22 7 12 1013.6 - 20.8
18/06:00pm 13.2 10.9 11.6 90 0.9 WNW 15 24 8 13 1013.3 1013.4 20.8
18/05:30pm 13.6 11.0 12.0 90 0.9 WNW 17 30 9 16 1013.0 - 20.8
18/05:00pm 13.6 11.1 12.2 91 0.8 WNW 17 32 9 17 1012.5 1012.6 20.8
18/04:30pm 13.6 10.4 12.0 90 0.9 NW 20 37 11 20 1012.3 - 20.8
18/04:00pm 13.8 10.9 12.2 90 0.9 WNW 19 33 10 18 1012.1 1012.2 20.6
18/03:30pm 13.9 9.5 11.6 86 1.2 NW 26 52 14 28 1012.3 - 20.4
18/03:00pm 15.0 11.3 12.7 86 1.3 NW 24 41 13 22 1011.8 1011.9 20.0
18/02:30pm 13.4 10.7 11.6 89 1.0 WNW 17 32 9 17 1011.9 - 20.0
18/02:00pm 13.0 9.7 11.6 91 0.8 NW 20 39 11 21 1012.1 1012.2 20.0
18/01:30pm 13.2 10.0 11.8 91 0.8 NW 20 41 11 22 1012.1 - 18.2
18/01:00pm 13.4 9.5 12.0 91 0.8 NW 24 39 13 21 1012.1 1012.2 14.8
18/12:30pm 13.4 10.4 11.8 90 0.9 WNW 19 37 10 20 1012.2 - 13.2
18/12:00pm 15.6 12.5 12.2 80 1.9 WNW 20 52 11 28 1012.3 1012.4 8.6
18/11:30am 13.3 9.9 11.4 88 1.0 NW 20 35 11 19 1013.0 - 8.6
18/11:07am 15.0 10.5 12.5 85 1.4 W 28 50 15 27 1012.8 - 7.0
18/11:00am 14.6 11.2 12.5 87 1.2 NW 22 39 12 21 1012.8 1012.9 7.0
18/10:30am 13.4 9.7 11.6 89 1.0 NW 22 43 12 23 1013.3 - 7.0
18/10:00am 13.4 11.1 11.8 90 0.9 NNW 15 30 8 16 1013.0 1013.1 5.6
18/09:30am 12.8 9.6 11.2 90 0.9 NNW 19 35 10 19 1013.1 - 5.2
18/09:00am 13.0 8.8 11.2 89 1.0 NNW 24 37 13 20 1013.4 1013.5 21.0
18/08:30am 12.7 8.4 10.6 87 1.1 N 24 37 13 20 1013.0 - 20.4
18/08:00am 12.4 8.0 10.3 87 1.1 N 24 37 13 20 1012.9 1013.0 19.2
18/07:30am 12.2 8.0 9.6 84 1.3 N 22 41 12 22 1012.9 - 19.2
18/07:00am 11.8 7.8 9.0 83 1.4 N 20 35 11 19 1012.8 1012.9 19.0
18/06:30am 11.8 7.9 9.4 85 1.2 N 20 33 11 18 1012.7 - 19.0
18/06:00am 11.5 7.7 8.9 84 1.3 NNW 19 32 10 17 1012.7 1012.8 19.0
18/05:30am 11.2 7.4 8.9 86 1.2 NNW 19 30 10 16 1012.8 - 19.0
18/05:00am 11.0 8.0 9.1 88 1.0 N 15 28 8 15 1012.7 1012.8 19.0
18/04:30am 11.2 8.6 9.3 88 1.0 NNW 13 19 7 10 1012.8 - 19.0
18/04:00am 11.7 9.0 10.3 91 0.7 N 15 28 8 15 1012.8 1012.9 19.0
18/03:30am 12.0 9.4 10.7 92 0.7 N 15 26 8 14 1013.0 - 19.0
18/03:00am 12.4 9.9 11.1 92 0.7 N 15 26 8 14 1013.4 1013.5 19.0
18/02:30am 12.5 9.3 11.2 92 0.7 NNW 19 32 10 17 1013.4 - 19.0
18/02:00am 12.1 8.2 10.7 91 0.7 N 22 35 12 19 1013.7 1013.8 18.2
18/01:30am 12.1 8.5 10.5 90 0.8 N 20 35 11 19 1014.2 - 16.8
18/01:00am 12.2 7.0 10.4 89 0.9 N 28 50 15 27 1014.6 1014.8 12.8
18/12:50am 12.3 7.1 10.4 88 1.0 N 28 52 15 28 1014.5 - 11.4
18/12:30am 12.9 9.3 10.4 85 1.3 N 20 37 11 20 1014.1 - 8.2
18/12:00am 13.0 7.1 11.1 88 1.0 N 33 56 18 30 1014.5 1014.7 8.0
 
Date/Time
WST
Temp
°C
App
Temp
°C
Dew
Point
Rel
Hum
%
Delta-T
°C
Wind Press
QNH
hPa
Press
MSL
hPa
Rain
since 9 am
mm
Dir
 
Spd
km/h
Gust
km/h
Spd
kts
Gust
kts
17/11:30pm 13.0 7.3 11.2 89 1.0 N 32 56 17 30 1015.2 - 6.6
17/11:00pm 14.2 9.2 12.2 88 1.1 NNW 30 59 16 32 1015.7 1015.8 3.8
17/10:56pm 14.5 9.9 12.4 87 1.2 NNW 28 59 15 32 1015.1 - 3.4
17/10:30pm 15.3 13.0 11.9 80 1.9 NNW 15 28 8 15 1014.9 - 0.0
17/10:00pm 15.5 11.8 11.5 77 2.2 NNW 22 37 12 20 1015.0 1015.2 0.0
17/09:30pm 15.7 11.6 10.2 70 2.9 WNW 22 41 12 22 1015.1 - 0.0
17/09:00pm 19.1 12.9 7.8 48 5.9 N 30 56 16 30 1014.8 1015.0 0.0
17/08:58pm 18.9 13.0 7.7 48 5.8 N 28 56 15 30 1014.7 - 0.0
17/08:30pm 18.6 13.7 8.6 52 5.3 N 24 39 13 21 1014.6 - 0.0
17/08:00pm 18.7 12.9 8.1 50 5.5 N 28 44 15 24 1014.6 1014.8 0.0
17/07:40pm 18.9 12.7 6.1 43 6.4 N 28 48 15 26 1014.9 - 0.0
17/07:30pm 18.7 13.0 4.8 40 6.8 N 24 37 13 20 1014.9 - 0.0
17/07:00pm 18.9 13.4 3.9 37 7.2 N 22 33 12 18 1014.8 1015.0 0.0
17/06:30pm 19.2 13.2 3.4 35 7.5 N 24 39 13 21 1015.1 - 0.0
17/06:00pm 18.6 13.8 5.5 42 6.5 N 20 30 11 16 1014.7 1014.9 0.0
17/05:30pm 19.3 15.5 5.7 41 6.8 N 15 26 8 14 1014.6 - 0.0
17/05:00pm 19.3 14.4 6.8 44 6.4 N 22 35 12 19 1015.4 1015.6 0.0
17/04:30pm 19.9 15.9 8.3 47 6.1 N 19 30 10 16 1015.4 - 0.0
17/04:00pm 20.5 18.7 10.9 54 5.3 NNW 11 19 6 10 1015.1 1015.3 0.0
17/03:30pm 21.1 19.3 10.9 52 5.7 NNW 11 15 6 8 1015.3 - 0.0
17/03:00pm 21.2 18.8 8.8 45 6.6 N 11 17 6 9 1015.0 1015.2 0.0
17/02:30pm 21.4 17.6 7.6 41 7.2 N 17 33 9 18 1015.1 - 0.0
17/02:00pm 21.2 17.9 8.1 43 6.9 N 15 24 8 13 1015.2 1015.4 0.0
17/01:30pm 21.1 17.2 7.3 41 7.2 N 17 28 9 15 1015.5 - 0.0
17/01:00pm 21.6 17.7 7.1 39 7.5 N 17 33 9 18 1015.9 1016.0 0.0

Other Formats:

Comma delimited format used in spreadsheet applications
http://www.bom.gov.au/fwo/IDW60801/IDW60801.94620.axf

JavaScript Object Notation format (JSON) in row-major order
http://www.bom.gov.au/fwo/IDW60801/IDW60801.94620.json